createdAt,value
2023-01-28T00:01:27.424Z,3.20
2023-01-28T00:03:52.328Z,3.20
2023-01-28T00:06:16.778Z,3.20
2023-01-28T00:08:40.266Z,3.30
2023-01-28T00:11:05.801Z,3.30
2023-01-28T00:13:29.473Z,3.30
2023-01-28T00:15:57.375Z,3.30
2023-01-28T00:18:22.432Z,3.30
2023-01-28T00:20:45.679Z,3.20
2023-01-28T00:23:09.083Z,3.20
2023-01-28T00:25:32.778Z,3.10
2023-01-28T00:27:56.031Z,3.10
2023-01-28T00:30:20.781Z,3.20
2023-01-28T00:32:44.611Z,3.20
2023-01-28T00:35:11.583Z,3.20
2023-01-28T00:37:38.155Z,3.10
2023-01-28T00:40:01.467Z,3.00
2023-01-28T00:42:25.241Z,3.00
2023-01-28T00:44:48.607Z,3.00
2023-01-28T00:47:11.888Z,3.00
2023-01-28T00:49:35.250Z,3.00
2023-01-28T00:52:00.014Z,3.00
2023-01-28T00:54:23.267Z,3.00
2023-01-28T00:56:46.526Z,2.90
2023-01-28T00:59:09.822Z,3.00
2023-01-28T01:01:33.217Z,3.00
2023-01-28T01:04:02.910Z,2.90
2023-01-28T01:06:27.248Z,3.00
2023-01-28T01:08:52.338Z,2.90
2023-01-28T01:11:15.626Z,2.90
2023-01-28T01:13:39.329Z,2.80
2023-01-28T01:16:04.840Z,2.90
2023-01-28T01:18:28.092Z,2.90
2023-01-28T01:20:53.085Z,2.80
2023-01-28T01:23:16.343Z,2.70
2023-01-28T01:25:41.431Z,2.80
2023-01-28T01:28:05.024Z,2.90
2023-01-28T01:30:28.723Z,2.80
2023-01-28T01:32:52.751Z,2.70
2023-01-28T01:35:16.536Z,2.70
2023-01-28T01:37:40.055Z,2.60
2023-01-28T01:40:04.931Z,2.70
2023-01-28T01:42:29.719Z,2.70
2023-01-28T01:45:02.407Z,2.70
2023-01-28T01:47:31.056Z,2.60
2023-01-28T01:49:54.935Z,2.70
2023-01-28T01:52:24.024Z,2.70
2023-01-28T01:54:54.045Z,2.70
2023-01-28T01:57:24.284Z,2.60
2023-01-28T01:59:49.426Z,2.60
2023-01-28T02:02:13.928Z,2.70
2023-01-28T02:04:41.117Z,2.60
2023-01-28T02:07:05.149Z,2.60
2023-01-28T02:09:30.860Z,2.70
2023-01-28T02:11:57.003Z,2.70
2023-01-28T02:14:30.510Z,2.60
2023-01-28T02:16:56.345Z,2.60
2023-01-28T02:19:23.650Z,2.60
2023-01-28T02:22:10.311Z,2.50
2023-01-28T02:25:09.044Z,2.60
2023-01-28T02:27:39.162Z,2.50
2023-01-28T02:30:12.127Z,2.50
2023-01-28T02:32:41.823Z,2.50
2023-01-28T02:35:14.164Z,2.50
2023-01-28T02:37:43.178Z,2.50
2023-01-28T02:40:13.675Z,2.50
2023-01-28T02:42:39.937Z,2.50
2023-01-28T02:45:05.624Z,2.50
2023-01-28T02:47:46.780Z,2.30
2023-01-28T02:50:14.598Z,2.30
2023-01-28T02:53:09.612Z,2.30
2023-01-28T02:55:40.312Z,2.30
2023-01-28T02:58:11.283Z,2.30
2023-01-28T03:00:48.203Z,2.20
2023-01-28T03:03:19.953Z,2.20
2023-01-28T03:06:03.688Z,2.10
2023-01-28T03:08:44.804Z,2.10
2023-01-28T03:11:25.568Z,2.10
2023-01-28T03:14:07.159Z,2.10
2023-01-28T03:16:52.374Z,2.00
2023-01-28T03:19:33.661Z,2.10
2023-01-28T03:22:16.664Z,2.10
2023-01-28T03:25:02.817Z,2.10
2023-01-28T03:27:52.095Z,2.00
2023-01-28T03:30:39.930Z,2.00
2023-01-28T03:33:27.904Z,2.10
2023-01-28T03:36:08.802Z,2.10
2023-01-28T03:38:34.071Z,2.20
2023-01-28T03:41:00.778Z,2.20
2023-01-28T03:43:25.108Z,2.20
2023-01-28T03:45:51.385Z,2.20
2023-01-28T03:48:16.304Z,2.20
2023-01-28T03:50:39.787Z,2.10
2023-01-28T03:53:13.496Z,2.10
2023-01-28T03:55:42.156Z,2.00
2023-01-28T03:58:06.103Z,2.00
2023-01-28T04:00:32.746Z,2.00
2023-01-28T04:02:56.184Z,2.10
2023-01-28T04:05:22.668Z,2.10
2023-01-28T04:07:46.523Z,2.10
2023-01-28T04:10:31.888Z,2.00
2023-01-28T04:13:06.410Z,2.00
2023-01-28T04:15:31.009Z,2.00
2023-01-28T04:17:54.641Z,2.10
2023-01-28T04:20:24.187Z,2.00
2023-01-28T04:22:47.454Z,2.10
2023-01-28T04:25:12.637Z,2.00
2023-01-28T04:27:36.176Z,2.00
2023-01-28T04:30:10.746Z,2.00
2023-01-28T04:32:37.348Z,2.00
2023-01-28T04:35:28.360Z,2.00
2023-01-28T04:37:58.616Z,1.90
2023-01-28T04:40:27.308Z,2.00
2023-01-28T04:42:59.452Z,2.00
2023-01-28T04:45:41.772Z,2.00
2023-01-28T04:48:18.626Z,2.00
2023-01-28T04:51:01.029Z,2.00
2023-01-28T04:53:34.245Z,2.00
2023-01-28T04:56:03.701Z,1.90
2023-01-28T04:58:29.352Z,2.00
2023-01-28T05:00:57.960Z,1.90
2023-01-28T05:03:21.865Z,1.90
2023-01-28T05:05:45.238Z,2.00
2023-01-28T05:08:39.157Z,2.00
2023-01-28T05:11:02.694Z,1.90
2023-01-28T05:13:26.179Z,1.90
2023-01-28T05:15:53.980Z,2.00
2023-01-28T05:18:17.680Z,1.90
2023-01-28T05:20:47.233Z,1.80
2023-01-28T05:23:10.707Z,1.80
2023-01-28T05:25:47.283Z,1.90
2023-01-28T05:28:10.594Z,1.90
2023-01-28T05:30:33.905Z,1.90
2023-01-28T05:32:58.107Z,1.90
2023-01-28T05:35:21.731Z,1.90
2023-01-28T05:37:44.998Z,1.80
2023-01-28T05:40:11.250Z,1.90
2023-01-28T05:42:35.882Z,1.90
2023-01-28T05:45:16.837Z,1.90
2023-01-28T05:47:58.448Z,1.90
2023-01-28T05:51:00.164Z,1.90
2023-01-28T05:53:30.070Z,1.90
2023-01-28T05:55:54.808Z,1.80
2023-01-28T05:58:20.360Z,1.80
2023-01-28T06:00:43.760Z,1.90
2023-01-28T06:03:07.231Z,1.90
2023-01-28T06:05:32.241Z,1.80
2023-01-28T06:07:57.496Z,1.80
2023-01-28T06:10:20.864Z,1.80
2023-01-28T06:12:44.659Z,1.80
2023-01-28T06:15:27.928Z,1.70
2023-01-28T06:18:17.140Z,1.80
2023-01-28T06:20:40.762Z,1.80
2023-01-28T06:23:04.006Z,1.70
2023-01-28T06:25:27.303Z,1.80
2023-01-28T06:27:51.322Z,1.80
2023-01-28T06:30:15.501Z,1.90
2023-01-28T06:32:40.835Z,1.90
2023-01-28T06:35:04.422Z,1.70
2023-01-28T06:37:27.825Z,1.80
2023-01-28T06:39:51.609Z,1.80
2023-01-28T06:42:14.819Z,1.70
2023-01-28T06:44:38.306Z,1.90
2023-01-28T06:47:01.477Z,1.80
2023-01-28T06:49:26.157Z,1.80
2023-01-28T06:51:49.744Z,1.70
2023-01-28T06:54:13.001Z,1.60
2023-01-28T06:56:36.313Z,1.70
2023-01-28T06:58:59.573Z,1.70
2023-01-28T07:01:22.927Z,1.70
2023-01-28T07:03:46.303Z,1.80
2023-01-28T07:06:11.051Z,1.70
2023-01-28T07:08:34.384Z,1.80
2023-01-28T07:10:57.799Z,1.70
2023-01-28T07:13:21.297Z,1.70
2023-01-28T07:15:44.719Z,1.70
2023-01-28T07:18:07.935Z,1.70
2023-01-28T07:20:32.452Z,1.70
2023-01-28T07:22:57.287Z,1.70
2023-01-28T07:25:20.872Z,1.70
2023-01-28T07:27:49.379Z,1.60
2023-01-28T07:30:14.420Z,1.60
2023-01-28T07:32:38.016Z,1.70
2023-01-28T07:35:01.350Z,1.60
2023-01-28T07:37:24.703Z,1.50
2023-01-28T07:39:49.589Z,1.50
2023-01-28T07:42:12.877Z,1.50
2023-01-28T07:44:42.702Z,1.50
2023-01-28T07:47:07.301Z,1.50
2023-01-28T07:49:30.904Z,1.50
2023-01-28T07:51:54.635Z,1.50
2023-01-28T07:54:18.088Z,1.50
2023-01-28T07:56:42.750Z,1.50
2023-01-28T07:59:06.167Z,1.60
2023-01-28T08:01:29.659Z,1.60
2023-01-28T08:03:53.158Z,1.60
2023-01-28T08:06:16.470Z,1.50
2023-01-28T08:08:39.775Z,1.50
2023-01-28T08:11:09.511Z,1.50
2023-01-28T08:13:34.207Z,1.60
2023-01-28T08:15:57.636Z,1.60
2023-01-28T08:18:20.985Z,1.70
2023-01-28T08:20:47.249Z,1.60
2023-01-28T08:23:13.498Z,1.60
2023-01-28T08:25:37.704Z,1.60
2023-01-28T08:28:01.022Z,1.60
2023-01-28T08:30:25.752Z,1.60
2023-01-28T08:32:49.210Z,1.70
2023-01-28T08:35:12.431Z,1.70
2023-01-28T08:37:35.736Z,1.80
2023-01-28T08:39:58.993Z,1.80
2023-01-28T08:42:22.207Z,1.80
2023-01-28T08:44:45.620Z,1.80
2023-01-28T08:47:10.281Z,1.80
2023-01-28T08:49:33.619Z,1.70
2023-01-28T08:51:56.886Z,1.80
2023-01-28T08:54:20.153Z,1.70
2023-01-28T08:56:44.856Z,1.70
2023-01-28T08:59:08.281Z,1.70
2023-01-28T09:01:31.560Z,1.80
2023-01-28T09:03:56.263Z,1.80
2023-01-28T09:06:19.587Z,1.80
2023-01-28T09:08:42.880Z,1.80
2023-01-28T09:11:06.358Z,1.70
2023-01-28T09:13:30.093Z,1.80
2023-01-28T09:15:53.854Z,1.70
2023-01-28T09:18:17.107Z,1.70
2023-01-28T09:20:42.633Z,1.80
2023-01-28T09:23:06.379Z,1.80
2023-01-28T09:25:30.117Z,1.70
2023-01-28T09:27:53.490Z,1.70
2023-01-28T09:30:17.741Z,1.70
2023-01-28T09:32:41.268Z,1.80
2023-01-28T09:35:05.060Z,1.70
2023-01-28T09:37:29.926Z,1.60
2023-01-28T09:39:53.495Z,1.70
2023-01-28T09:42:33.987Z,1.70
2023-01-28T09:45:07.433Z,1.70
2023-01-28T09:47:37.214Z,1.80
2023-01-28T09:50:04.414Z,1.80
2023-01-28T09:52:32.173Z,1.70
2023-01-28T09:55:02.135Z,1.80
2023-01-28T09:57:28.226Z,1.80
2023-01-28T09:59:51.806Z,1.80
2023-01-28T10:02:32.379Z,1.80
2023-01-28T10:05:07.056Z,1.80
2023-01-28T10:07:41.135Z,1.80
2023-01-28T10:10:13.687Z,1.90
2023-01-28T10:13:17.256Z,1.80
2023-01-28T10:15:59.418Z,1.90
2023-01-28T10:18:34.617Z,2.00
2023-01-28T10:21:08.315Z,1.90
2023-01-28T10:23:45.453Z,1.80
2023-01-28T10:26:23.930Z,1.80
2023-01-28T10:28:54.025Z,1.90
2023-01-28T10:31:17.324Z,2.00
2023-01-28T10:33:40.664Z,2.00
2023-01-28T10:36:05.629Z,2.10
2023-01-28T10:38:31.879Z,2.10
2023-01-28T10:41:01.650Z,1.80
2023-01-28T10:43:28.128Z,1.90
2023-01-28T10:45:59.843Z,2.00
2023-01-28T10:48:26.499Z,2.00
2023-01-28T10:50:57.004Z,1.90
2023-01-28T10:53:20.878Z,2.00
2023-01-28T10:55:52.503Z,2.00
2023-01-28T10:58:21.238Z,1.80
2023-01-28T11:00:44.732Z,1.90
2023-01-28T11:03:18.372Z,1.90
2023-01-28T11:05:52.910Z,1.80
2023-01-28T11:08:18.075Z,1.60
2023-01-28T11:10:42.636Z,1.70
2023-01-28T11:13:17.833Z,1.80
2023-01-28T11:15:48.804Z,1.80
2023-01-28T11:18:20.373Z,1.90
2023-01-28T11:20:51.709Z,1.80
2023-01-28T11:23:23.820Z,1.80
2023-01-28T11:25:47.110Z,1.70
2023-01-28T11:28:20.577Z,1.70
2023-01-28T11:30:44.157Z,1.60
2023-01-28T11:33:17.310Z,1.70
2023-01-28T11:35:40.636Z,1.60
2023-01-28T11:38:04.020Z,1.70
2023-01-28T11:40:28.077Z,1.80
2023-01-28T11:42:53.419Z,1.80
2023-01-28T11:45:21.799Z,1.90
2023-01-28T11:48:04.558Z,1.80
2023-01-28T11:50:39.753Z,1.90
2023-01-28T11:53:21.630Z,1.80
2023-01-28T11:56:15.059Z,1.70
2023-01-28T11:58:50.036Z,1.80
2023-01-28T12:01:23.452Z,1.60
2023-01-28T12:04:14.391Z,1.60
2023-01-28T12:06:58.339Z,1.50
2023-01-28T12:09:32.021Z,1.50
2023-01-28T12:12:13.479Z,1.50
2023-01-28T12:14:55.977Z,1.70
2023-01-28T12:17:34.263Z,1.50
2023-01-28T12:20:09.791Z,1.30
2023-01-28T12:22:58.412Z,1.40
2023-01-28T12:25:37.813Z,1.50
2023-01-28T12:28:10.620Z,1.60
2023-01-28T12:30:55.705Z,1.80
2023-01-28T12:33:49.312Z,1.90
2023-01-28T12:36:29.772Z,1.70
2023-01-28T12:39:06.069Z,2.00
2023-01-28T12:41:36.123Z,1.90
2023-01-28T12:44:03.930Z,2.00
2023-01-28T12:46:38.359Z,2.00
2023-01-28T12:49:08.084Z,1.80
2023-01-28T12:51:40.897Z,1.90
2023-01-28T12:54:13.789Z,1.60
2023-01-28T12:56:42.151Z,1.70
2023-01-28T12:59:12.676Z,1.90
2023-01-28T13:01:43.890Z,2.00
2023-01-28T13:04:15.448Z,1.90
2023-01-28T13:06:44.555Z,1.90
2023-01-28T13:09:18.994Z,2.00
2023-01-28T13:11:42.837Z,2.00
2023-01-28T13:14:06.925Z,1.80
2023-01-28T13:16:37.273Z,1.80
2023-01-28T13:19:23.514Z,2.00
2023-01-28T13:21:49.966Z,2.10
2023-01-28T13:24:32.964Z,2.00
2023-01-28T13:26:57.575Z,2.00
2023-01-28T13:29:33.099Z,2.00
2023-01-28T13:31:59.929Z,2.10
2023-01-28T13:34:37.678Z,2.10
2023-01-28T13:37:06.119Z,2.10
2023-01-28T13:39:31.260Z,1.70
2023-01-28T13:41:57.495Z,1.90
2023-01-28T13:44:28.691Z,1.80
2023-01-28T13:46:52.431Z,1.90
2023-01-28T13:49:23.065Z,2.00
2023-01-28T13:51:59.820Z,2.00
2023-01-28T13:54:24.398Z,2.10
2023-01-28T13:57:10.394Z,2.10
2023-01-28T13:59:49.329Z,2.10
2023-01-28T14:02:49.843Z,2.10
2023-01-28T14:05:53.784Z,2.30
2023-01-28T14:08:59.113Z,2.10
2023-01-28T14:12:06.932Z,2.10
2023-01-28T14:15:07.535Z,2.00
2023-01-28T14:17:43.420Z,2.10
2023-01-28T14:20:16.525Z,2.10
2023-01-28T14:22:43.339Z,2.10
2023-01-28T14:25:14.523Z,2.10
2023-01-28T14:27:44.757Z,1.90
2023-01-28T14:30:19.196Z,1.90
2023-01-28T14:32:47.868Z,1.90
2023-01-28T14:35:18.192Z,1.90
2023-01-28T14:37:42.722Z,1.80
2023-01-28T14:40:14.048Z,2.00
2023-01-28T14:42:41.884Z,1.80
2023-01-28T14:45:23.845Z,1.70
2023-01-28T14:48:12.475Z,1.70
2023-01-28T14:51:00.460Z,1.60
2023-01-28T14:53:54.431Z,1.70
2023-01-28T14:56:33.458Z,2.00
2023-01-28T14:59:04.217Z,1.80
2023-01-28T15:01:29.653Z,1.70
2023-01-28T15:03:54.174Z,1.60
2023-01-28T15:06:21.568Z,1.70
2023-01-28T15:08:45.076Z,1.90
2023-01-28T15:11:11.520Z,1.90
2023-01-28T15:13:42.067Z,1.50
2023-01-28T15:16:08.370Z,1.50
2023-01-28T15:18:36.373Z,1.60
2023-01-28T15:21:00.851Z,1.50
2023-01-28T15:23:38.075Z,1.60
2023-01-28T15:26:05.904Z,1.60
2023-01-28T15:28:32.136Z,1.60
2023-01-28T15:30:57.005Z,1.50
2023-01-28T15:33:23.490Z,1.60
2023-01-28T15:35:50.515Z,1.50
2023-01-28T15:38:13.872Z,1.70
2023-01-28T15:40:44.437Z,1.50
2023-01-28T15:43:07.944Z,1.50
2023-01-28T15:45:34.423Z,1.30
2023-01-28T15:48:08.907Z,1.20
2023-01-28T15:50:32.334Z,1.20
2023-01-28T15:52:56.310Z,1.20
2023-01-28T15:55:41.339Z,1.10
2023-01-28T15:58:21.483Z,1.10
2023-01-28T16:00:44.871Z,1.20
2023-01-28T16:03:11.414Z,1.20
2023-01-28T16:05:38.692Z,1.10
2023-01-28T16:08:08.493Z,1.10
2023-01-28T16:10:32.510Z,1.00
2023-01-28T16:13:05.233Z,1.00
2023-01-28T16:15:28.670Z,0.80
2023-01-28T16:17:53.295Z,0.90
2023-01-28T16:20:24.199Z,0.80
2023-01-28T16:22:49.677Z,0.80
2023-01-28T16:25:30.084Z,0.70
2023-01-28T16:27:53.630Z,0.70
2023-01-28T16:30:18.415Z,0.80
2023-01-28T16:32:42.573Z,0.60
2023-01-28T16:35:15.765Z,0.60
2023-01-28T16:37:41.792Z,0.50
2023-01-28T16:40:07.360Z,0.50
2023-01-28T16:42:32.740Z,0.50
2023-01-28T16:44:56.092Z,0.30
2023-01-28T16:47:19.479Z,0.20
2023-01-28T16:49:42.802Z,0.20
2023-01-28T16:52:07.250Z,0.10
2023-01-28T16:54:32.500Z,0.00
2023-01-28T16:56:57.161Z,0.00
2023-01-28T16:59:20.612Z,0.00
2023-01-28T17:01:44.433Z,-0.10
2023-01-28T17:04:12.068Z,-0.10
2023-01-28T17:06:37.732Z,-0.20
2023-01-28T17:09:00.956Z,-0.20
2023-01-28T17:11:29.779Z,-0.30
2023-01-28T17:13:52.981Z,-0.40
2023-01-28T17:16:16.250Z,-0.40
2023-01-28T17:18:40.000Z,-0.40
2023-01-28T17:21:04.496Z,-0.40
2023-01-28T17:23:27.817Z,-0.50
2023-01-28T17:25:51.703Z,-0.50
2023-01-28T17:28:16.818Z,-0.50
2023-01-28T17:30:41.708Z,-0.60
2023-01-28T17:33:05.704Z,-0.70
2023-01-28T17:35:30.866Z,-0.70
2023-01-28T17:37:54.464Z,-0.70
2023-01-28T17:40:18.777Z,-0.70
2023-01-28T17:42:42.052Z,-0.70
2023-01-28T17:45:07.738Z,-0.70
2023-01-28T17:47:31.825Z,-0.70
2023-01-28T17:49:56.853Z,-0.70
2023-01-28T17:52:20.209Z,-0.70
2023-01-28T17:54:43.488Z,-0.70
2023-01-28T17:57:06.722Z,-0.80
2023-01-28T17:59:30.209Z,-0.70
2023-01-28T18:01:55.495Z,-0.70
2023-01-28T18:04:18.830Z,-0.70
2023-01-28T18:06:42.240Z,-0.70
2023-01-28T18:09:07.091Z,-0.90
2023-01-28T18:11:32.121Z,-0.80
2023-01-28T18:13:55.353Z,-0.80
2023-01-28T18:16:20.768Z,-0.80
2023-01-28T18:18:46.234Z,-0.90
2023-01-28T18:21:20.940Z,-0.90
2023-01-28T18:23:44.860Z,-0.90
2023-01-28T18:26:08.073Z,-0.90
2023-01-28T18:28:31.811Z,-1.00
2023-01-28T18:30:55.472Z,-1.00
2023-01-28T18:33:18.909Z,-1.00
2023-01-28T18:35:45.185Z,-1.00
2023-01-28T18:38:08.424Z,-1.00
2023-01-28T18:40:31.706Z,-1.00
2023-01-28T18:42:55.052Z,-1.00
2023-01-28T18:45:18.498Z,-1.00
2023-01-28T18:47:41.735Z,-1.00
2023-01-28T18:50:06.230Z,-1.10
2023-01-28T18:52:30.841Z,-1.00
2023-01-28T18:54:54.335Z,-1.00
2023-01-28T18:57:17.562Z,-1.00
2023-01-28T18:59:40.807Z,-1.00
2023-01-28T19:02:04.042Z,-1.00
2023-01-28T19:04:27.411Z,-1.10
2023-01-28T19:06:50.838Z,-1.10
2023-01-28T19:09:17.640Z,-1.20
2023-01-28T19:11:41.794Z,-1.10
2023-01-28T19:14:05.169Z,-1.20
2023-01-28T19:16:28.713Z,-1.30
2023-01-28T19:18:54.375Z,-1.20
2023-01-28T19:21:17.734Z,-1.30
2023-01-28T19:23:49.571Z,-1.30
2023-01-28T19:26:20.810Z,-1.30
2023-01-28T19:28:44.183Z,-1.30
2023-01-28T19:31:07.478Z,-1.30
2023-01-28T19:33:30.767Z,-1.40
2023-01-28T19:35:57.938Z,-1.40
2023-01-28T19:38:21.284Z,-1.40
2023-01-28T19:40:44.471Z,-1.40
2023-01-28T19:43:09.169Z,-1.40
2023-01-28T19:45:32.421Z,-1.40
2023-01-28T19:47:55.790Z,-1.40
2023-01-28T19:50:19.253Z,-1.40
2023-01-28T19:52:42.634Z,-1.50
2023-01-28T19:55:07.573Z,-1.40
2023-01-28T19:57:31.062Z,-1.40
2023-01-28T19:59:55.759Z,-1.50
2023-01-28T20:02:19.013Z,-1.50
2023-01-28T20:04:54.882Z,-1.50
2023-01-28T20:07:23.563Z,-1.40
2023-01-28T20:09:47.048Z,-1.50
2023-01-28T20:12:11.951Z,-1.50
2023-01-28T20:14:35.155Z,-1.50
2023-01-28T20:17:00.145Z,-1.50
2023-01-28T20:19:23.481Z,-1.50
2023-01-28T20:21:47.719Z,-1.60
2023-01-28T20:24:13.821Z,-1.50
2023-01-28T20:26:38.839Z,-1.60
2023-01-28T20:29:03.039Z,-1.70
2023-01-28T20:31:26.380Z,-1.70
2023-01-28T20:33:51.465Z,-1.70
2023-01-28T20:36:15.646Z,-1.60
2023-01-28T20:38:40.306Z,-1.70
2023-01-28T20:41:07.645Z,-1.70
2023-01-28T20:43:30.854Z,-1.70
2023-01-28T20:45:55.887Z,-1.70
2023-01-28T20:48:19.241Z,-1.70
2023-01-28T20:50:43.893Z,-1.80
2023-01-28T20:53:07.257Z,-1.80
2023-01-28T20:55:30.627Z,-1.80
2023-01-28T20:57:54.241Z,-1.90
2023-01-28T21:00:18.694Z,-1.90
2023-01-28T21:02:44.240Z,-1.90
2023-01-28T21:05:09.017Z,-1.90
2023-01-28T21:07:33.761Z,-1.90
2023-01-28T21:09:57.556Z,-1.90
2023-01-28T21:12:20.814Z,-1.90
2023-01-28T21:14:44.059Z,-1.90
2023-01-28T21:17:07.737Z,-1.90
2023-01-28T21:19:31.034Z,-1.90
2023-01-28T21:21:54.374Z,-2.00
2023-01-28T21:24:19.125Z,-2.00
2023-01-28T21:26:42.368Z,-2.00
2023-01-28T21:29:05.738Z,-2.00
2023-01-28T21:31:29.077Z,-2.00
2023-01-28T21:33:54.899Z,-2.10
2023-01-28T21:36:19.189Z,-2.20
2023-01-28T21:38:43.020Z,-2.10
2023-01-28T21:41:08.660Z,-2.00
2023-01-28T21:43:32.396Z,-2.00
2023-01-28T21:45:59.410Z,-2.10
2023-01-28T21:48:22.723Z,-2.10
2023-01-28T21:50:59.895Z,-2.10
2023-01-28T21:53:23.168Z,-2.20
2023-01-28T21:55:49.053Z,-2.20
2023-01-28T21:58:31.633Z,-2.20
2023-01-28T22:00:55.025Z,-2.30
2023-01-28T22:03:18.443Z,-2.20
2023-01-28T22:05:41.761Z,-2.30
2023-01-28T22:08:05.137Z,-2.20
2023-01-28T22:10:28.425Z,-2.20
2023-01-28T22:12:51.665Z,-2.30
2023-01-28T22:15:16.403Z,-2.30
2023-01-28T22:17:39.797Z,-2.20
2023-01-28T22:20:03.288Z,-2.40
2023-01-28T22:22:26.705Z,-2.40
2023-01-28T22:24:49.889Z,-2.40
2023-01-28T22:27:14.067Z,-2.40
2023-01-28T22:29:37.483Z,-2.40
2023-01-28T22:32:04.122Z,-2.50
2023-01-28T22:34:28.429Z,-2.40
2023-01-28T22:36:52.296Z,-2.40
2023-01-28T22:39:17.499Z,-2.40
2023-01-28T22:41:41.484Z,-2.40
2023-01-28T22:44:04.851Z,-2.40
2023-01-28T22:46:28.983Z,-2.40
2023-01-28T22:48:53.778Z,-2.40
2023-01-28T22:51:20.047Z,-2.40
2023-01-28T22:53:43.644Z,-2.50
2023-01-28T22:56:08.213Z,-2.40
2023-01-28T22:58:32.123Z,-2.50
2023-01-28T23:00:56.347Z,-2.50
2023-01-28T23:03:19.936Z,-2.50
2023-01-28T23:05:44.976Z,-2.40
2023-01-28T23:08:11.327Z,-2.50
2023-01-28T23:10:34.551Z,-2.60
2023-01-28T23:12:58.258Z,-2.50
2023-01-28T23:15:41.340Z,-2.50
2023-01-28T23:18:22.455Z,-2.60
2023-01-28T23:21:04.548Z,-2.60
2023-01-28T23:23:45.346Z,-2.90
2023-01-28T23:26:08.699Z,-2.80
2023-01-28T23:28:32.018Z,-2.60
2023-01-28T23:30:56.007Z,-2.60
2023-01-28T23:33:19.451Z,-2.70
2023-01-28T23:35:43.046Z,-2.80
2023-01-28T23:38:07.755Z,-2.70
2023-01-28T23:40:31.130Z,-2.70
2023-01-28T23:42:56.432Z,-2.80
2023-01-28T23:45:19.907Z,-2.90
2023-01-28T23:47:43.247Z,-2.90
2023-01-28T23:50:07.203Z,-3.00
2023-01-28T23:52:30.600Z,-2.90
2023-01-28T23:54:55.653Z,-2.90
2023-01-28T23:57:19.100Z,-2.90
2023-01-28T23:59:42.695Z,-2.90
